createdAt,value
2022-09-28T00:01:22.223Z,11.70
2022-09-28T00:03:52.020Z,11.70
2022-09-28T00:06:24.340Z,11.70
2022-09-28T00:08:52.087Z,11.70
2022-09-28T00:11:21.724Z,11.80
2022-09-28T00:13:56.532Z,11.70
2022-09-28T00:16:28.030Z,11.90
2022-09-28T00:18:55.618Z,11.70
2022-09-28T00:21:30.245Z,11.70
2022-09-28T00:24:12.522Z,11.70
2022-09-28T00:26:52.668Z,11.70
2022-09-28T00:29:26.898Z,11.70
2022-09-28T00:32:10.326Z,11.70
2022-09-28T00:34:45.734Z,11.70
2022-09-28T00:37:14.187Z,11.70
2022-09-28T00:39:41.789Z,11.70
2022-09-28T00:42:21.457Z,11.70
2022-09-28T00:44:53.064Z,11.70
2022-09-28T00:47:23.564Z,11.70
2022-09-28T00:50:11.001Z,11.80
2022-09-28T00:52:54.866Z,11.70
2022-09-28T00:55:37.830Z,11.70
2022-09-28T00:58:09.137Z,11.70
2022-09-28T01:00:36.157Z,11.80
2022-09-28T01:03:04.252Z,11.80
2022-09-28T01:05:31.647Z,11.80
2022-09-28T01:07:58.791Z,11.80
2022-09-28T01:10:27.517Z,11.80
2022-09-28T01:12:55.599Z,11.80
2022-09-28T01:15:28.049Z,11.80
2022-09-28T01:18:22.586Z,11.80
2022-09-28T01:21:01.413Z,11.80
2022-09-28T01:23:54.153Z,11.80
2022-09-28T01:26:50.734Z,11.90
2022-09-28T01:30:14.530Z,11.90
2022-09-28T01:32:50.581Z,11.90
2022-09-28T01:35:31.673Z,11.90
2022-09-28T01:38:19.016Z,11.90
2022-09-28T01:40:47.789Z,11.90
2022-09-28T01:43:24.854Z,11.90
2022-09-28T01:46:00.518Z,11.90
2022-09-28T01:48:37.202Z,11.80
2022-09-28T01:51:18.304Z,11.80
2022-09-28T01:53:55.920Z,11.80
2022-09-28T01:56:37.137Z,11.80
2022-09-28T01:59:16.225Z,11.90
2022-09-28T02:02:12.450Z,11.80
2022-09-28T02:05:04.943Z,11.80
2022-09-28T02:07:54.891Z,11.80
2022-09-28T02:10:30.814Z,11.80
2022-09-28T02:13:09.057Z,11.70
2022-09-28T02:16:04.367Z,11.70
2022-09-28T02:18:31.809Z,11.70
2022-09-28T02:21:23.294Z,11.60
2022-09-28T02:24:02.486Z,11.60
2022-09-28T02:26:39.951Z,11.60
2022-09-28T02:29:06.824Z,11.60
2022-09-28T02:31:34.402Z,11.30
2022-09-28T02:34:01.258Z,12.00
2022-09-28T02:36:29.670Z,11.50
2022-09-28T02:38:58.356Z,11.40
2022-09-28T02:42:03.683Z,11.40
2022-09-28T02:45:06.627Z,11.40
2022-09-28T02:47:56.427Z,11.40
2022-09-28T02:51:00.049Z,11.50
2022-09-28T02:54:22.857Z,11.40
2022-09-28T02:57:19.680Z,11.50
2022-09-28T03:00:07.988Z,11.50
2022-09-28T03:03:09.789Z,11.50
2022-09-28T03:06:14.893Z,11.50
2022-09-28T03:09:09.111Z,11.60
2022-09-28T03:11:46.550Z,11.60
2022-09-28T03:14:14.539Z,11.60
2022-09-28T03:16:45.800Z,11.60
2022-09-28T03:19:14.083Z,11.60
2022-09-28T03:21:41.301Z,11.60
2022-09-28T03:24:11.091Z,11.60
2022-09-28T03:26:39.166Z,11.60
2022-09-28T03:29:06.612Z,11.60
2022-09-28T03:31:33.594Z,11.60
2022-09-28T03:34:00.534Z,11.60
2022-09-28T03:36:27.310Z,11.70
2022-09-28T03:38:56.089Z,11.70
2022-09-28T03:41:25.147Z,11.70
2022-09-28T03:43:51.828Z,11.70
2022-09-28T03:46:18.590Z,11.70
2022-09-28T03:48:45.471Z,11.70
2022-09-28T03:51:12.983Z,11.70
2022-09-28T03:53:40.343Z,12.30
2022-09-28T03:56:15.772Z,11.70
2022-09-28T03:58:43.165Z,11.70
2022-09-28T04:01:16.868Z,11.70
2022-09-28T04:03:44.516Z,11.70
2022-09-28T04:06:11.742Z,11.70
2022-09-28T04:08:38.836Z,11.70
2022-09-28T04:11:05.831Z,11.70
2022-09-28T04:13:32.717Z,11.70
2022-09-28T04:16:01.442Z,11.70
2022-09-28T04:18:28.381Z,11.70
2022-09-28T04:21:12.075Z,11.70
2022-09-28T04:23:40.133Z,11.60
2022-09-28T04:26:16.624Z,11.60
2022-09-28T04:29:06.525Z,11.60
2022-09-28T04:31:44.711Z,11.60
2022-09-28T04:34:13.615Z,11.60
2022-09-28T04:36:41.081Z,11.50
2022-09-28T04:39:07.815Z,11.50
2022-09-28T04:41:34.721Z,11.50
2022-09-28T04:44:01.874Z,11.40
2022-09-28T04:46:28.624Z,11.40
2022-09-28T04:48:55.493Z,11.40
2022-09-28T04:51:22.263Z,11.40
2022-09-28T04:53:49.194Z,11.40
2022-09-28T04:56:18.951Z,11.30
2022-09-28T04:58:51.807Z,11.80
2022-09-28T05:01:20.963Z,11.30
2022-09-28T05:03:47.752Z,11.40
2022-09-28T05:06:15.745Z,11.30
2022-09-28T05:08:43.536Z,11.30
2022-09-28T05:11:14.314Z,11.30
2022-09-28T05:13:45.761Z,11.30
2022-09-28T05:16:16.063Z,11.30
2022-09-28T05:18:43.556Z,11.30
2022-09-28T05:21:15.559Z,11.30
2022-09-28T05:23:47.045Z,11.20
2022-09-28T05:26:14.718Z,11.30
2022-09-28T05:28:41.554Z,11.30
2022-09-28T05:31:08.844Z,11.30
2022-09-28T05:33:36.287Z,11.30
2022-09-28T05:36:04.056Z,11.30
2022-09-28T05:38:31.662Z,11.30
2022-09-28T05:40:59.692Z,11.30
2022-09-28T05:43:27.977Z,11.30
2022-09-28T05:45:55.968Z,11.30
2022-09-28T05:48:23.266Z,11.30
2022-09-28T05:50:54.031Z,11.30
2022-09-28T05:53:21.480Z,11.30
2022-09-28T05:55:48.807Z,11.30
2022-09-28T05:58:16.835Z,11.30
2022-09-28T06:00:43.835Z,11.30
2022-09-28T06:03:13.875Z,11.30
2022-09-28T06:05:41.096Z,11.30
2022-09-28T06:08:12.794Z,11.30
2022-09-28T06:10:40.834Z,11.30
2022-09-28T06:13:10.528Z,11.30
2022-09-28T06:15:39.009Z,11.30
2022-09-28T06:18:14.205Z,11.40
2022-09-28T06:20:41.685Z,11.40
2022-09-28T06:23:13.531Z,11.40
2022-09-28T06:25:41.191Z,11.50
2022-09-28T06:28:13.076Z,11.50
2022-09-28T06:30:42.146Z,11.50
2022-09-28T06:33:13.335Z,11.70
2022-09-28T06:35:40.759Z,11.60
2022-09-28T06:38:08.327Z,11.70
2022-09-28T06:40:36.350Z,12.20
2022-09-28T06:43:11.259Z,11.80
2022-09-28T06:45:42.817Z,11.80
2022-09-28T06:48:11.730Z,11.90
2022-09-28T06:50:41.400Z,12.00
2022-09-28T06:53:12.213Z,12.60
2022-09-28T06:55:46.065Z,12.10
2022-09-28T06:58:17.198Z,12.20
2022-09-28T07:00:44.500Z,12.30
2022-09-28T07:03:15.391Z,12.30
2022-09-28T07:05:53.773Z,12.40
2022-09-28T07:08:25.919Z,12.50
2022-09-28T07:10:56.075Z,12.60
2022-09-28T07:16:13.369Z,12.70
2022-09-28T07:18:40.434Z,12.90
2022-09-28T07:21:08.806Z,12.90
2022-09-28T07:23:49.916Z,13.00
2022-09-28T07:26:22.794Z,13.10
2022-09-28T07:28:50.127Z,13.20
2022-09-28T07:31:16.886Z,13.30
2022-09-28T07:33:43.682Z,13.40
2022-09-28T07:36:10.660Z,13.50
2022-09-28T07:38:38.206Z,13.60
2022-09-28T07:41:16.789Z,14.10
2022-09-28T07:43:43.786Z,13.70
2022-09-28T07:46:13.424Z,13.70
2022-09-28T07:48:42.696Z,13.80
2022-09-28T07:51:10.227Z,13.80
2022-09-28T07:53:38.419Z,13.80
2022-09-28T07:56:09.405Z,13.90
2022-09-28T07:58:38.733Z,13.90
2022-09-28T08:01:10.408Z,13.90
2022-09-28T08:03:38.796Z,14.00
2022-09-28T08:06:11.185Z,14.00
2022-09-28T08:08:44.670Z,14.00
2022-09-28T08:11:15.321Z,14.10
2022-09-28T08:13:43.851Z,14.10
2022-09-28T08:16:11.229Z,14.20
2022-09-28T08:18:38.129Z,14.80
2022-09-28T08:21:24.781Z,14.60
2022-09-28T08:23:52.852Z,14.50
2022-09-28T08:26:19.806Z,14.70
2022-09-28T08:28:47.768Z,14.80
2022-09-28T08:31:14.861Z,15.00
2022-09-28T08:33:44.523Z,15.10
2022-09-28T08:36:11.460Z,15.30
2022-09-28T08:38:38.925Z,15.50
2022-09-28T08:41:17.461Z,15.60
2022-09-28T08:43:57.438Z,15.80
2022-09-28T08:46:32.175Z,16.00
2022-09-28T08:49:32.582Z,16.20
2022-09-28T08:52:07.774Z,16.50
2022-09-28T08:54:54.528Z,16.40
2022-09-28T08:57:33.384Z,16.50
2022-09-28T09:00:09.555Z,16.50
2022-09-28T09:02:39.790Z,16.60
2022-09-28T09:05:14.736Z,16.50
2022-09-28T09:08:00.781Z,16.60
2022-09-28T09:11:02.795Z,16.60
2022-09-28T09:13:38.430Z,16.60
2022-09-28T09:16:37.067Z,16.70
2022-09-28T09:19:42.303Z,16.70
2022-09-28T09:22:40.625Z,16.80
2022-09-28T09:25:41.389Z,16.90
2022-09-28T09:28:20.680Z,17.00
2022-09-28T09:31:37.144Z,17.10
2022-09-28T09:34:32.164Z,17.20
2022-09-28T09:37:13.899Z,17.30
2022-09-28T09:40:07.355Z,17.40
2022-09-28T09:43:13.819Z,17.50
2022-09-28T09:45:58.779Z,17.70
2022-09-28T09:48:52.880Z,17.80
2022-09-28T09:51:38.223Z,18.00
2022-09-28T09:54:42.632Z,18.50
2022-09-28T09:57:30.002Z,19.10
2022-09-28T10:00:01.892Z,19.80
2022-09-28T10:02:40.293Z,20.40
2022-09-28T10:05:12.847Z,21.10
2022-09-28T10:07:54.728Z,21.70
2022-09-28T10:10:35.390Z,22.20
2022-09-28T10:13:03.410Z,22.60
2022-09-28T10:15:35.287Z,22.90
2022-09-28T10:18:11.099Z,23.10
2022-09-28T10:20:42.086Z,23.30
2022-09-28T10:23:23.545Z,23.40
2022-09-28T10:25:56.769Z,23.50
2022-09-28T10:28:45.170Z,23.50
2022-09-28T10:31:36.905Z,23.60
2022-09-28T10:34:05.909Z,23.70
2022-09-28T10:36:43.097Z,23.80
2022-09-28T10:39:37.513Z,23.90
2022-09-28T10:42:12.176Z,24.10
2022-09-28T10:45:02.859Z,24.20
2022-09-28T10:47:32.743Z,24.40
2022-09-28T10:50:00.898Z,24.60
2022-09-28T10:52:44.889Z,24.80
2022-09-28T10:55:33.279Z,25.00
2022-09-28T10:58:00.791Z,25.20
2022-09-28T11:00:41.872Z,25.20
2022-09-28T11:03:28.063Z,25.20
2022-09-28T11:06:07.836Z,25.20
2022-09-28T11:08:38.371Z,25.10
2022-09-28T11:11:11.267Z,24.90
2022-09-28T11:13:42.696Z,24.80
2022-09-28T11:16:24.417Z,24.60
2022-09-28T11:18:51.961Z,24.40
2022-09-28T11:21:28.351Z,24.20
2022-09-28T11:24:02.088Z,24.00
2022-09-28T11:26:41.194Z,23.70
2022-09-28T11:29:38.167Z,23.50
2022-09-28T11:32:06.217Z,23.20
2022-09-28T11:34:58.747Z,23.00
2022-09-28T11:37:45.541Z,22.70
2022-09-28T11:40:34.039Z,22.50
2022-09-28T11:43:31.944Z,22.40
2022-09-28T11:46:27.847Z,22.30
2022-09-28T11:49:03.909Z,22.30
2022-09-28T11:51:40.983Z,22.30
2022-09-28T11:54:50.585Z,22.30
2022-09-28T11:57:26.619Z,22.20
2022-09-28T12:00:10.447Z,22.20
2022-09-28T12:02:46.832Z,22.10
2022-09-28T12:05:29.949Z,21.90
2022-09-28T12:08:12.714Z,21.80
2022-09-28T12:10:57.705Z,21.70
2022-09-28T12:13:33.165Z,21.60
2022-09-28T12:17:05.020Z,21.40
2022-09-28T12:19:55.368Z,21.30
2022-09-28T12:22:34.809Z,21.10
2022-09-28T12:25:04.996Z,20.90
2022-09-28T12:27:51.271Z,20.70
2022-09-28T12:30:21.602Z,20.50
2022-09-28T12:33:13.333Z,20.40
2022-09-28T12:36:03.933Z,20.30
2022-09-28T12:39:21.849Z,20.20
2022-09-28T12:42:31.567Z,20.10
2022-09-28T12:45:38.824Z,20.00
2022-09-28T12:49:36.749Z,19.90
2022-09-28T12:51:51.423Z,19.80
2022-09-28T12:54:55.128Z,19.70
2022-09-28T12:57:42.625Z,19.70
2022-09-28T13:00:22.882Z,19.60
2022-09-28T13:02:55.690Z,19.60
2022-09-28T13:05:56.170Z,19.50
2022-09-28T13:08:48.212Z,19.50
2022-09-28T13:11:43.951Z,19.40
2022-09-28T13:15:09.867Z,19.30
2022-09-28T13:17:51.824Z,19.30
2022-09-28T13:20:39.526Z,19.20
2022-09-28T13:23:25.237Z,19.10
2022-09-28T13:26:13.931Z,19.10
2022-09-28T13:28:43.450Z,19.00
2022-09-28T13:31:15.786Z,18.90
2022-09-28T13:33:47.013Z,18.90
2022-09-28T13:36:28.719Z,18.80
2022-09-28T13:39:00.220Z,18.80
2022-09-28T13:41:40.323Z,18.80
2022-09-28T13:44:13.194Z,18.80
2022-09-28T13:47:03.956Z,18.80
2022-09-28T13:50:17.218Z,18.80
2022-09-28T13:53:31.393Z,18.80
2022-09-28T13:56:24.453Z,18.80
2022-09-28T13:59:03.493Z,18.90
2022-09-28T14:01:39.741Z,19.00
2022-09-28T14:05:02.594Z,19.10
2022-09-28T14:07:35.539Z,19.20
2022-09-28T14:10:37.538Z,19.30
2022-09-28T14:13:06.609Z,19.40
2022-09-28T14:15:35.305Z,19.40
2022-09-28T14:18:13.861Z,19.50
2022-09-28T14:21:03.673Z,19.50
2022-09-28T14:24:22.510Z,19.40
2022-09-28T14:27:34.186Z,19.40
2022-09-28T14:30:20.811Z,19.40
2022-09-28T14:32:58.347Z,19.40
2022-09-28T14:35:40.046Z,19.30
2022-09-28T14:38:44.189Z,19.30
2022-09-28T14:41:17.945Z,19.30
2022-09-28T14:43:44.589Z,19.20
2022-09-28T14:46:11.416Z,19.20
2022-09-28T14:49:03.376Z,19.20
2022-09-28T14:51:30.105Z,19.20
2022-09-28T14:54:04.732Z,19.20
2022-09-28T14:57:08.168Z,19.00
2022-09-28T14:59:43.497Z,19.00
2022-09-28T15:02:31.877Z,18.80
2022-09-28T15:05:27.845Z,18.70
2022-09-28T15:07:56.125Z,18.50
2022-09-28T15:10:35.439Z,18.20
2022-09-28T15:13:16.058Z,18.10
2022-09-28T15:15:50.416Z,17.70
2022-09-28T15:19:08.210Z,17.50
2022-09-28T15:21:39.781Z,17.40
2022-09-28T15:24:31.540Z,17.30
2022-09-28T15:27:00.940Z,17.30
2022-09-28T15:29:33.329Z,17.10
2022-09-28T15:32:01.286Z,16.90
2022-09-28T15:34:51.378Z,16.90
2022-09-28T15:37:32.925Z,16.70
2022-09-28T15:40:01.234Z,16.60
2022-09-28T15:42:28.244Z,16.50
2022-09-28T15:45:07.698Z,16.40
2022-09-28T15:47:35.342Z,16.30
2022-09-28T15:50:27.681Z,16.30
2022-09-28T15:53:01.829Z,16.20
2022-09-28T15:55:39.067Z,16.10
2022-09-28T15:58:21.419Z,16.00
2022-09-28T16:01:12.070Z,16.00
2022-09-28T16:03:38.861Z,16.20
2022-09-28T16:06:09.351Z,15.90
2022-09-28T16:08:36.042Z,15.80
2022-09-28T16:11:38.162Z,15.80
2022-09-28T16:14:18.613Z,15.80
2022-09-28T16:16:46.988Z,15.80
2022-09-28T16:19:29.491Z,16.00
2022-09-28T16:21:59.491Z,15.90
2022-09-28T16:24:37.082Z,15.90
2022-09-28T16:27:05.700Z,16.00
2022-09-28T16:29:42.041Z,16.00
2022-09-28T16:32:26.893Z,16.10
2022-09-28T16:35:27.793Z,16.10
2022-09-28T16:38:05.491Z,16.10
2022-09-28T16:40:33.459Z,16.10
2022-09-28T16:43:05.635Z,16.10
2022-09-28T16:45:35.065Z,16.10
2022-09-28T16:48:03.043Z,16.00
2022-09-28T16:50:29.911Z,15.90
2022-09-28T16:53:31.897Z,15.90
2022-09-28T16:55:59.795Z,15.90
2022-09-28T16:58:27.689Z,15.80
2022-09-28T17:00:55.478Z,15.70
2022-09-28T17:03:23.506Z,15.80
2022-09-28T17:05:51.777Z,15.60
2022-09-28T17:08:22.726Z,15.60
2022-09-28T17:11:14.888Z,15.50
2022-09-28T17:13:47.329Z,15.50
2022-09-28T17:16:36.695Z,15.50
2022-09-28T17:19:23.462Z,15.40
2022-09-28T17:21:52.201Z,15.70
2022-09-28T17:24:20.279Z,15.30
2022-09-28T17:26:50.016Z,15.30
2022-09-28T17:29:17.487Z,15.30
2022-09-28T17:31:46.441Z,15.20
2022-09-28T17:34:16.146Z,15.10
2022-09-28T17:36:43.861Z,15.50
2022-09-28T17:39:15.272Z,15.00
2022-09-28T17:41:42.276Z,15.00
2022-09-28T17:44:09.609Z,15.00
2022-09-28T17:46:39.796Z,14.90
2022-09-28T17:49:11.470Z,14.80
2022-09-28T17:51:38.436Z,14.80
2022-09-28T17:54:07.956Z,14.80
2022-09-28T17:56:36.201Z,14.80
2022-09-28T17:59:10.035Z,14.80
2022-09-28T18:01:39.753Z,14.70
2022-09-28T18:04:09.322Z,14.70
2022-09-28T18:06:39.239Z,14.70
2022-09-28T18:09:06.156Z,14.60
2022-09-28T18:11:34.219Z,14.60
2022-09-28T18:14:01.277Z,14.50
2022-09-28T18:16:29.064Z,14.50
2022-09-28T18:18:56.172Z,14.50
2022-09-28T18:21:23.017Z,14.40
2022-09-28T18:23:49.774Z,14.50
2022-09-28T18:26:19.476Z,14.40
2022-09-28T18:28:47.045Z,14.40
2022-09-28T18:31:15.699Z,14.30
2022-09-28T18:33:43.277Z,14.30
2022-09-28T18:36:10.142Z,14.20
2022-09-28T18:38:38.275Z,14.30
2022-09-28T18:41:13.386Z,14.20
2022-09-28T18:43:40.358Z,14.20
2022-09-28T18:46:09.514Z,14.20
2022-09-28T18:48:38.337Z,14.20
2022-09-28T18:51:09.602Z,14.20
2022-09-28T18:53:37.343Z,14.20
2022-09-28T18:56:13.381Z,14.10
2022-09-28T18:58:42.573Z,14.10
2022-09-28T19:01:33.857Z,14.10
2022-09-28T19:04:03.505Z,14.10
2022-09-28T19:06:32.387Z,14.00
2022-09-28T19:09:03.685Z,14.10
2022-09-28T19:11:30.411Z,14.00
2022-09-28T19:13:57.249Z,14.00
2022-09-28T19:16:30.475Z,14.10
2022-09-28T19:18:58.827Z,14.00
2022-09-28T19:21:26.672Z,13.90
2022-09-28T19:23:55.235Z,13.90
2022-09-28T19:26:26.841Z,13.90
2022-09-28T19:28:55.695Z,13.80
2022-09-28T19:31:23.356Z,14.00
2022-09-28T19:33:50.762Z,13.70
2022-09-28T19:36:23.930Z,13.60
2022-09-28T19:38:52.893Z,13.60
2022-09-28T19:41:44.188Z,13.50
2022-09-28T19:44:15.545Z,13.50
2022-09-28T19:46:43.534Z,13.50
2022-09-28T19:49:14.647Z,13.30
2022-09-28T19:51:56.555Z,13.40
2022-09-28T19:54:35.513Z,13.30
2022-09-28T19:57:08.964Z,13.30
2022-09-28T19:59:37.307Z,13.20
2022-09-28T20:02:07.519Z,13.20
2022-09-28T20:04:34.401Z,13.20
2022-09-28T20:07:01.672Z,13.20
2022-09-28T20:09:28.713Z,13.20
2022-09-28T20:11:55.464Z,13.20
2022-09-28T20:14:24.485Z,13.20
2022-09-28T20:16:53.243Z,13.20
2022-09-28T20:19:21.684Z,13.20
2022-09-28T20:21:49.753Z,13.20
2022-09-28T20:24:17.336Z,13.10
2022-09-28T20:26:46.162Z,13.10
2022-09-28T20:29:13.397Z,13.20
2022-09-28T20:31:40.419Z,13.10
2022-09-28T20:34:07.758Z,13.10
2022-09-28T20:36:35.040Z,13.10
2022-09-28T20:39:04.149Z,13.30
2022-09-28T20:41:36.414Z,13.10
2022-09-28T20:44:06.363Z,13.00
2022-09-28T20:46:35.089Z,13.10
2022-09-28T20:49:02.323Z,13.00
2022-09-28T20:51:29.080Z,13.00
2022-09-28T20:53:57.944Z,13.00
2022-09-28T20:56:37.590Z,12.90
2022-09-28T20:59:08.321Z,12.90
2022-09-28T21:01:35.248Z,12.90
2022-09-28T21:04:04.643Z,12.90
2022-09-28T21:06:39.970Z,12.80
2022-09-28T21:09:09.194Z,12.80
2022-09-28T21:11:36.966Z,12.80
2022-09-28T21:14:06.654Z,12.70
2022-09-28T21:16:35.102Z,12.70
2022-09-28T21:19:02.712Z,13.00
2022-09-28T21:21:30.071Z,12.70
2022-09-28T21:23:58.326Z,12.60
2022-09-28T21:26:28.186Z,12.60
2022-09-28T21:28:57.920Z,13.00
2022-09-28T21:31:29.648Z,12.50
2022-09-28T21:33:57.632Z,12.40
2022-09-28T21:36:25.469Z,12.40
2022-09-28T21:38:54.150Z,12.30
2022-09-28T21:41:20.898Z,12.30
2022-09-28T21:43:47.633Z,12.30
2022-09-28T21:46:14.412Z,12.20
2022-09-28T21:48:41.620Z,12.20
2022-09-28T21:51:13.782Z,12.20
2022-09-28T21:53:40.771Z,12.10
2022-09-28T21:56:10.891Z,12.10
2022-09-28T21:58:38.260Z,12.00
2022-09-28T22:01:13.073Z,12.00
2022-09-28T22:03:41.382Z,12.00
2022-09-28T22:06:09.519Z,11.90
2022-09-28T22:08:37.760Z,11.80
2022-09-28T22:11:12.214Z,11.80
2022-09-28T22:13:46.884Z,11.70
2022-09-28T22:16:16.913Z,11.70
2022-09-28T22:18:44.463Z,11.70
2022-09-28T22:21:17.878Z,11.60
2022-09-28T22:23:45.577Z,11.60
2022-09-28T22:26:25.178Z,11.50
2022-09-28T22:28:54.480Z,11.50
2022-09-28T22:31:25.233Z,11.40
2022-09-28T22:33:52.535Z,11.40
2022-09-28T22:36:19.914Z,11.30
2022-09-28T22:38:47.947Z,11.30
2022-09-28T22:41:17.557Z,11.40
2022-09-28T22:43:44.553Z,11.30
2022-09-28T22:46:33.586Z,11.20
2022-09-28T22:49:00.957Z,11.20
2022-09-28T22:51:29.782Z,11.10
2022-09-28T22:53:57.219Z,11.10
2022-09-28T22:56:25.170Z,11.10
2022-09-28T22:58:52.013Z,11.10
2022-09-28T23:01:25.963Z,11.00
2022-09-28T23:03:54.981Z,11.00
2022-09-28T23:06:26.004Z,10.90
2022-09-28T23:08:53.718Z,11.00
2022-09-28T23:11:20.877Z,10.90
2022-09-28T23:13:56.405Z,10.80
2022-09-28T23:16:25.767Z,10.80
2022-09-28T23:18:55.051Z,10.80
2022-09-28T23:21:25.324Z,10.70
2022-09-28T23:23:56.142Z,10.70
2022-09-28T23:26:27.056Z,10.70
2022-09-28T23:28:55.297Z,10.60
2022-09-28T23:31:30.639Z,10.60
2022-09-28T23:34:04.902Z,10.60
2022-09-28T23:36:32.782Z,10.50
2022-09-28T23:39:00.112Z,10.50
2022-09-28T23:41:26.970Z,10.50
2022-09-28T23:43:53.710Z,10.50
2022-09-28T23:46:21.328Z,10.50
2022-09-28T23:48:49.490Z,10.40
2022-09-28T23:51:17.046Z,10.40
2022-09-28T23:53:43.906Z,10.40
2022-09-28T23:56:11.181Z,10.40
2022-09-28T23:58:38.032Z,10.40
